createdAt,value
2019-03-11T00:03:14.013Z,75.80
2019-03-11T00:05:42.509Z,75.90
2019-03-11T00:08:10.947Z,75.90
2019-03-11T00:10:39.399Z,75.90
2019-03-11T00:13:07.847Z,75.90
2019-03-11T00:15:36.339Z,75.90
2019-03-11T00:18:17.747Z,75.90
2019-03-11T00:20:46.192Z,75.90
2019-03-11T00:23:14.674Z,75.90
2019-03-11T00:25:43.128Z,76.10
2019-03-11T00:28:11.575Z,76.00
2019-03-11T00:30:40.012Z,76.00
2019-03-11T00:33:08.460Z,76.00
2019-03-11T00:35:36.895Z,76.10
2019-03-11T00:38:05.357Z,76.00
2019-03-11T00:40:33.859Z,76.00
2019-03-11T00:43:02.335Z,76.10
2019-03-11T00:45:30.787Z,76.10
2019-03-11T00:48:02.391Z,76.00
2019-03-11T00:50:29.447Z,75.90
2019-03-11T00:52:57.932Z,75.90
2019-03-11T00:55:26.410Z,75.90
2019-03-11T00:57:54.923Z,75.90
2019-03-11T01:00:29.101Z,75.80
2019-03-11T01:02:57.567Z,75.70
2019-03-11T01:05:26.026Z,75.70
2019-03-11T01:07:54.470Z,75.60
2019-03-11T01:10:23.343Z,75.50
2019-03-11T01:12:51.839Z,75.30
2019-03-11T01:15:20.282Z,75.20
2019-03-11T01:17:48.872Z,74.90
2019-03-11T01:20:17.299Z,75.00
2019-03-11T01:22:45.835Z,75.00
2019-03-11T01:25:14.728Z,75.20
2019-03-11T01:27:43.167Z,75.30
2019-03-11T01:30:16.157Z,75.30
2019-03-11T01:32:44.943Z,75.50
2019-03-11T01:35:13.484Z,75.50
2019-03-11T01:37:41.928Z,75.60
2019-03-11T01:40:13.023Z,75.50
2019-03-11T01:42:41.479Z,75.30
2019-03-11T01:45:33.478Z,75.50
2019-03-11T01:48:01.907Z,75.60
2019-03-11T01:50:30.349Z,75.70
2019-03-11T01:52:58.870Z,75.90
2019-03-11T01:55:27.379Z,76.00
2019-03-11T01:57:55.907Z,76.10
2019-03-11T02:00:24.359Z,76.30
2019-03-11T02:02:52.820Z,76.40
2019-03-11T02:05:21.280Z,76.60
2019-03-11T02:07:49.722Z,76.70
2019-03-11T02:10:39.054Z,76.80
2019-03-11T02:13:07.495Z,76.80
2019-03-11T02:15:35.935Z,76.80
2019-03-11T02:18:04.382Z,76.90
2019-03-11T02:20:32.829Z,76.90
2019-03-11T02:23:01.302Z,77.00
2019-03-11T02:25:29.739Z,77.50
2019-03-11T02:27:58.211Z,77.10
2019-03-11T02:30:26.735Z,77.10
2019-03-11T02:32:55.179Z,77.10
2019-03-11T02:35:30.592Z,77.10
2019-03-11T02:37:59.148Z,77.10
2019-03-11T02:40:27.729Z,77.10
2019-03-11T02:42:56.172Z,77.20
2019-03-11T02:45:24.616Z,77.10
2019-03-11T02:47:53.074Z,77.10
2019-03-11T02:50:21.523Z,77.20
2019-03-11T02:52:49.982Z,77.20
2019-03-11T02:55:18.428Z,77.20
2019-03-11T02:57:46.892Z,77.30
2019-03-11T03:00:18.728Z,77.30
2019-03-11T03:03:01.488Z,77.30
2019-03-11T03:05:31.567Z,77.40
2019-03-11T03:08:00.017Z,77.50
2019-03-11T03:10:28.485Z,77.50
2019-03-11T03:12:56.940Z,77.50
2019-03-11T03:15:25.387Z,77.50
2019-03-11T03:17:53.847Z,77.50
2019-03-11T03:20:22.288Z,77.50
2019-03-11T03:22:50.808Z,77.40
2019-03-11T03:25:33.087Z,77.30
2019-03-11T03:27:49.651Z,77.40
2019-03-11T03:30:19.340Z,77.10
2019-03-11T03:32:47.880Z,77.20
2019-03-11T03:35:16.358Z,77.10
2019-03-11T03:37:44.800Z,77.00
2019-03-11T03:40:15.253Z,77.10
2019-03-11T03:42:43.155Z,76.90
2019-03-11T03:45:35.825Z,77.50
2019-03-11T03:48:04.622Z,76.90
2019-03-11T03:50:35.588Z,77.10
2019-03-11T03:53:04.185Z,77.50
2019-03-11T03:55:32.909Z,77.80
2019-03-11T03:58:01.343Z,78.10
2019-03-11T04:00:29.794Z,78.10
2019-03-11T04:02:58.235Z,78.20
2019-03-11T04:05:26.688Z,78.40
2019-03-11T04:07:55.126Z,78.50
2019-03-11T04:10:23.580Z,78.70
2019-03-11T04:12:52.014Z,78.60
2019-03-11T04:15:20.468Z,78.50
2019-03-11T04:17:49.026Z,78.70
2019-03-11T04:20:27.787Z,78.60
2019-03-11T04:22:56.326Z,78.70
2019-03-11T04:25:24.856Z,78.60
2019-03-11T04:27:53.361Z,78.80
2019-03-11T04:30:24.212Z,78.60
2019-03-11T04:32:52.775Z,78.60
2019-03-11T04:35:21.279Z,78.30
2019-03-11T04:37:49.718Z,78.00
2019-03-11T04:40:18.341Z,77.40
2019-03-11T04:42:46.852Z,76.80
2019-03-11T04:45:16.331Z,76.50
2019-03-11T04:47:44.853Z,76.50
2019-03-11T04:50:19.116Z,76.30
2019-03-11T04:52:47.587Z,76.40
2019-03-11T04:55:16.560Z,76.50
2019-03-11T04:57:53.262Z,76.60
2019-03-11T05:00:23.754Z,76.70
2019-03-11T05:02:52.224Z,76.80
2019-03-11T05:05:20.655Z,77.00
2019-03-11T05:07:49.101Z,77.30
2019-03-11T05:10:17.542Z,77.40
2019-03-11T05:12:45.983Z,77.60
2019-03-11T05:15:14.662Z,77.70
2019-03-11T05:17:43.183Z,77.80
2019-03-11T05:20:16.073Z,78.00
2019-03-11T05:22:44.502Z,78.00
2019-03-11T05:25:14.602Z,78.00
2019-03-11T05:27:43.031Z,78.10
2019-03-11T05:30:14.616Z,78.20
2019-03-11T05:32:43.067Z,78.40
2019-03-11T05:35:11.622Z,78.40
2019-03-11T05:37:40.055Z,78.70
2019-03-11T05:40:16.308Z,78.70
2019-03-11T05:42:44.842Z,79.00
2019-03-11T05:45:20.158Z,79.10
2019-03-11T05:47:48.629Z,79.20
2019-03-11T05:50:18.213Z,79.30
2019-03-11T05:52:46.722Z,79.70
2019-03-11T05:55:16.009Z,79.60
2019-03-11T05:57:44.457Z,79.90
2019-03-11T06:00:36.696Z,80.00
2019-03-11T06:03:05.167Z,80.20
2019-03-11T06:05:33.603Z,80.20
2019-03-11T06:08:02.040Z,81.00
2019-03-11T06:10:30.487Z,80.30
2019-03-11T06:12:58.927Z,80.10
2019-03-11T06:15:27.375Z,80.00
2019-03-11T06:17:55.827Z,80.00
2019-03-11T06:20:25.899Z,80.20
2019-03-11T06:22:54.338Z,80.20
2019-03-11T06:25:22.783Z,80.00
2019-03-11T06:27:51.226Z,80.20
2019-03-11T06:30:19.667Z,80.10
2019-03-11T06:32:48.165Z,80.10
2019-03-11T06:35:16.599Z,80.10
2019-03-11T06:37:45.061Z,80.00
2019-03-11T06:40:14.137Z,80.00
2019-03-11T06:42:42.583Z,80.00
2019-03-11T06:45:12.998Z,80.10
2019-03-11T06:47:40.680Z,80.20
2019-03-11T06:50:11.318Z,79.70
2019-03-11T06:52:39.828Z,80.10
2019-03-11T06:55:09.927Z,80.20
2019-03-11T06:57:38.384Z,80.50
2019-03-11T07:00:15.528Z,80.60
2019-03-11T07:02:44.062Z,80.70
2019-03-11T07:05:19.869Z,80.70
2019-03-11T07:07:42.714Z,80.70
2019-03-11T07:10:13.426Z,80.60
2019-03-11T07:12:41.869Z,80.50
2019-03-11T07:15:14.703Z,80.40
2019-03-11T07:17:43.163Z,80.50
2019-03-11T07:20:16.168Z,80.40
2019-03-11T07:22:44.614Z,80.20
2019-03-11T07:25:13.128Z,80.30
2019-03-11T07:27:41.575Z,80.30
2019-03-11T07:30:13.148Z,81.00
2019-03-11T07:32:41.635Z,80.20
2019-03-11T07:35:10.143Z,81.00
2019-03-11T07:37:38.591Z,80.20
2019-03-11T07:40:10.064Z,80.20
2019-03-11T07:42:38.526Z,80.00
2019-03-11T07:45:09.101Z,80.10
2019-03-11T07:47:37.553Z,80.00
2019-03-11T07:50:07.639Z,80.10
2019-03-11T07:52:36.075Z,79.90
2019-03-11T07:55:06.864Z,80.00
2019-03-11T07:57:35.403Z,80.10
2019-03-11T08:00:09.540Z,80.00
2019-03-11T08:02:37.975Z,79.90
2019-03-11T08:05:08.659Z,79.90
2019-03-11T08:07:37.124Z,79.90
2019-03-11T08:10:11.621Z,79.60
2019-03-11T08:12:40.063Z,79.70
2019-03-11T08:15:11.709Z,79.70
2019-03-11T08:17:40.158Z,79.70
2019-03-11T08:20:13.382Z,79.80
2019-03-11T08:22:41.913Z,79.70
2019-03-11T08:25:12.003Z,79.90
2019-03-11T08:27:40.438Z,79.80
2019-03-11T08:30:14.571Z,79.70
2019-03-11T08:32:43.102Z,79.50
2019-03-11T08:35:11.559Z,79.60
2019-03-11T08:37:40.001Z,79.60
2019-03-11T08:40:13.887Z,79.30
2019-03-11T08:42:42.400Z,79.10
2019-03-11T08:45:13.384Z,78.40
2019-03-11T08:47:41.817Z,78.10
2019-03-11T08:50:12.583Z,77.90
2019-03-11T08:52:41.035Z,78.30
2019-03-11T08:55:10.023Z,78.60
2019-03-11T08:57:40.192Z,79.10
2019-03-11T09:00:32.150Z,79.70
2019-03-11T09:03:00.606Z,80.00
2019-03-11T09:05:29.075Z,80.40
2019-03-11T09:07:57.519Z,80.10
2019-03-11T09:10:25.972Z,80.00
2019-03-11T09:12:54.483Z,80.00
2019-03-11T09:15:23.005Z,80.00
2019-03-11T09:17:51.443Z,79.80
2019-03-11T09:20:19.888Z,80.10
2019-03-11T09:22:48.439Z,80.10
2019-03-11T09:25:21.052Z,80.30
2019-03-11T09:27:50.720Z,80.20
2019-03-11T09:30:21.069Z,80.20
2019-03-11T09:32:49.621Z,80.00
2019-03-11T09:35:18.144Z,79.90
2019-03-11T09:37:46.630Z,79.60
2019-03-11T09:40:18.852Z,79.50
2019-03-11T09:42:47.285Z,79.20
2019-03-11T09:45:16.783Z,79.70
2019-03-11T09:47:45.263Z,79.00
2019-03-11T09:50:34.608Z,78.90
2019-03-11T09:53:03.044Z,78.90
2019-03-11T09:55:31.479Z,79.10
2019-03-11T09:57:59.926Z,78.80
2019-03-11T10:00:29.796Z,78.60
2019-03-11T10:02:58.239Z,78.50
2019-03-11T10:05:26.716Z,78.60
2019-03-11T10:07:55.261Z,78.90
2019-03-11T10:10:26.413Z,79.20
2019-03-11T10:12:54.923Z,79.40
2019-03-11T10:15:44.221Z,79.80
2019-03-11T10:18:12.675Z,80.20
2019-03-11T10:20:41.122Z,80.70
2019-03-11T10:23:09.567Z,81.10
2019-03-11T10:25:38.004Z,81.60
2019-03-11T10:28:06.494Z,81.90
2019-03-11T10:30:35.204Z,82.30
2019-03-11T10:33:03.640Z,82.80
2019-03-11T10:35:32.934Z,83.40
2019-03-11T10:38:01.643Z,83.90
2019-03-11T10:40:33.047Z,84.50
2019-03-11T10:43:01.486Z,83.30
2019-03-11T10:45:32.218Z,83.20
2019-03-11T10:48:00.142Z,82.80
2019-03-11T10:50:28.631Z,82.50
2019-03-11T10:52:57.092Z,81.90
2019-03-11T10:55:26.637Z,81.20
2019-03-11T10:57:55.081Z,81.70
2019-03-11T11:00:27.491Z,80.50
2019-03-11T11:02:56.271Z,80.50
2019-03-11T11:05:24.705Z,79.90
2019-03-11T11:07:53.246Z,80.10
2019-03-11T11:10:21.943Z,78.90
2019-03-11T11:12:50.432Z,78.40
2019-03-11T11:15:39.727Z,78.40
2019-03-11T11:18:08.190Z,78.60
2019-03-11T11:20:36.622Z,78.60
2019-03-11T11:23:05.156Z,77.70
2019-03-11T11:25:33.616Z,78.50
2019-03-11T11:28:02.069Z,78.80
2019-03-11T11:30:31.563Z,79.30
2019-03-11T11:33:00.271Z,78.70
2019-03-11T11:35:28.913Z,78.30
2019-03-11T11:37:57.408Z,78.20
2019-03-11T11:40:29.982Z,77.90
2019-03-11T11:42:58.621Z,77.80
2019-03-11T11:45:31.032Z,77.30
2019-03-11T11:47:59.494Z,77.40
2019-03-11T11:50:28.034Z,77.70
2019-03-11T11:52:56.490Z,76.70
2019-03-11T11:55:57.068Z,76.70
2019-03-11T11:58:15.967Z,76.70
2019-03-11T12:00:46.046Z,76.50
2019-03-11T12:03:14.616Z,76.70
2019-03-11T12:05:43.051Z,76.70
2019-03-11T12:08:11.556Z,77.00
2019-03-11T12:10:40.139Z,76.80
2019-03-11T12:13:08.642Z,77.10
2019-03-11T12:15:37.375Z,77.70
2019-03-11T12:18:05.975Z,77.30
2019-03-11T12:20:34.435Z,77.60
2019-03-11T12:23:02.891Z,77.30
2019-03-11T12:25:31.343Z,77.90
2019-03-11T12:27:59.847Z,77.90
2019-03-11T12:30:29.434Z,77.30
2019-03-11T12:32:58.164Z,77.50
2019-03-11T12:35:27.177Z,76.40
2019-03-11T12:37:56.067Z,75.80
2019-03-11T12:40:24.678Z,75.50
2019-03-11T12:42:53.307Z,75.40
2019-03-11T12:45:26.107Z,75.20
2019-03-11T12:47:54.991Z,75.50
2019-03-11T12:50:25.628Z,75.80
2019-03-11T12:52:54.084Z,75.70
2019-03-11T12:55:22.551Z,76.20
2019-03-11T12:57:51.042Z,76.80
2019-03-11T13:00:21.063Z,76.90
2019-03-11T13:02:50.072Z,77.30
2019-03-11T13:05:18.959Z,77.60
2019-03-11T13:07:47.640Z,78.40
2019-03-11T13:10:18.236Z,78.60
2019-03-11T13:12:46.904Z,80.10
2019-03-11T13:15:36.253Z,79.60
2019-03-11T13:18:32.925Z,78.90
2019-03-11T13:21:03.539Z,78.00
2019-03-11T13:23:32.004Z,77.60
2019-03-11T13:26:01.073Z,78.30
2019-03-11T13:28:29.674Z,78.60
2019-03-11T13:30:58.108Z,78.70
2019-03-11T13:33:26.553Z,78.30
2019-03-11T13:35:56.739Z,78.10
2019-03-11T13:38:24.674Z,76.90
2019-03-11T13:40:53.111Z,72.30
2019-03-11T13:43:21.571Z,75.90
2019-03-11T13:45:50.010Z,75.80
2019-03-11T13:48:18.456Z,75.90
2019-03-11T13:50:46.904Z,75.10
2019-03-11T13:53:15.351Z,76.00
2019-03-11T13:55:43.791Z,75.60
2019-03-11T13:58:12.238Z,75.10
2019-03-11T14:00:40.703Z,75.00
2019-03-11T14:03:09.144Z,74.80
2019-03-11T14:05:37.621Z,74.80
2019-03-11T14:08:06.136Z,74.50
2019-03-11T14:10:34.572Z,74.50
2019-03-11T14:13:03.051Z,74.40
2019-03-11T14:15:31.495Z,73.90
2019-03-11T14:17:59.923Z,73.90
2019-03-11T14:20:28.372Z,74.20
2019-03-11T14:22:57.659Z,73.90
2019-03-11T14:25:26.090Z,74.40
2019-03-11T14:27:54.538Z,74.50
2019-03-11T14:30:23.615Z,74.80
2019-03-11T14:32:52.124Z,75.00
2019-03-11T14:35:20.559Z,75.10
2019-03-11T14:37:49.026Z,75.20
2019-03-11T14:40:21.131Z,75.20
2019-03-11T14:42:50.588Z,75.40
2019-03-11T14:45:20.955Z,75.40
2019-03-11T14:47:49.382Z,75.30
2019-03-11T14:50:18.669Z,75.00
2019-03-11T14:52:47.187Z,75.10
2019-03-11T14:55:16.078Z,74.90
2019-03-11T14:57:44.583Z,75.10
2019-03-11T15:00:22.976Z,75.30
2019-03-11T15:02:51.403Z,75.40
2019-03-11T15:05:40.717Z,75.40
2019-03-11T15:08:09.157Z,75.40
2019-03-11T15:10:37.595Z,75.50
2019-03-11T15:13:06.071Z,75.30
2019-03-11T15:15:34.519Z,75.40
2019-03-11T15:18:03.057Z,75.20
2019-03-11T15:20:31.575Z,74.80
2019-03-11T15:23:06.205Z,75.30
2019-03-11T15:25:30.315Z,75.50
2019-03-11T15:27:59.163Z,75.70
2019-03-11T15:30:27.667Z,76.10
2019-03-11T15:32:56.143Z,76.20
2019-03-11T15:35:24.636Z,76.10
2019-03-11T15:37:53.078Z,76.20
2019-03-11T15:40:21.530Z,76.20
2019-03-11T15:42:49.972Z,76.40
2019-03-11T15:45:19.442Z,76.50
2019-03-11T15:47:47.951Z,76.50
2019-03-11T15:50:27.868Z,76.40
2019-03-11T15:52:56.383Z,76.40
2019-03-11T15:55:24.819Z,76.30
2019-03-11T15:57:53.295Z,76.40
2019-03-11T16:00:22.965Z,76.30
2019-03-11T16:02:51.544Z,76.30
2019-03-11T16:05:24.053Z,76.40
2019-03-11T16:07:53.036Z,76.40
2019-03-11T16:10:21.484Z,76.30
2019-03-11T16:12:49.931Z,76.40
2019-03-11T16:15:39.331Z,76.10
2019-03-11T16:18:07.763Z,76.00
2019-03-11T16:20:36.205Z,75.40
2019-03-11T16:23:04.647Z,75.70
2019-03-11T16:25:33.079Z,75.00
2019-03-11T16:28:01.549Z,75.50
2019-03-11T16:30:29.980Z,75.00
2019-03-11T16:33:00.645Z,75.10
2019-03-11T16:35:29.161Z,75.40
2019-03-11T16:37:57.664Z,75.70
2019-03-11T16:40:26.117Z,75.50
2019-03-11T16:42:54.591Z,75.80
2019-03-11T16:45:23.031Z,75.90
2019-03-11T16:47:51.480Z,75.80
2019-03-11T16:50:43.781Z,75.80
2019-03-11T16:53:12.223Z,76.10
2019-03-11T16:55:42.303Z,76.00
2019-03-11T16:58:10.744Z,76.20
2019-03-11T17:00:40.969Z,76.20
2019-03-11T17:03:08.625Z,76.40
2019-03-11T17:05:37.064Z,74.40
2019-03-11T17:08:05.752Z,76.30
2019-03-11T17:10:34.255Z,76.50
2019-03-11T17:13:02.811Z,76.70
2019-03-11T17:15:31.247Z,77.00
2019-03-11T17:17:59.704Z,77.10
2019-03-11T17:20:28.147Z,77.30
2019-03-11T17:22:56.593Z,77.30
2019-03-11T17:25:25.039Z,77.40
2019-03-11T17:27:53.499Z,77.40
2019-03-11T17:30:27.000Z,77.60
2019-03-11T17:32:55.426Z,77.40
2019-03-11T17:35:23.958Z,77.60
2019-03-11T17:37:52.480Z,77.80
2019-03-11T17:40:22.188Z,77.90
2019-03-11T17:42:51.026Z,77.80
2019-03-11T17:45:19.713Z,78.70
2019-03-11T17:47:48.169Z,78.20
2019-03-11T17:50:20.187Z,78.20
2019-03-11T17:52:48.701Z,78.30
2019-03-11T17:55:18.302Z,78.10
2019-03-11T17:57:46.880Z,78.10
2019-03-11T18:00:27.359Z,78.00
2019-03-11T18:02:55.048Z,77.70
2019-03-11T18:05:23.624Z,76.40
2019-03-11T18:07:52.130Z,76.80
2019-03-11T18:10:20.577Z,76.80
2019-03-11T18:12:49.094Z,77.00
2019-03-11T18:15:17.623Z,77.10
2019-03-11T18:17:46.203Z,77.10
2019-03-11T18:20:21.152Z,76.90
2019-03-11T18:22:49.770Z,76.90
2019-03-11T18:25:19.266Z,76.90
2019-03-11T18:27:47.853Z,77.70
2019-03-11T18:30:37.165Z,76.90
2019-03-11T18:33:05.819Z,76.90
2019-03-11T18:35:34.392Z,77.00
2019-03-11T18:38:04.752Z,77.10
2019-03-11T18:40:33.145Z,77.30
2019-03-11T18:43:01.667Z,77.20
2019-03-11T18:45:30.169Z,77.20
2019-03-11T18:47:58.709Z,77.30
2019-03-11T18:50:27.225Z,78.10
2019-03-11T18:52:55.722Z,77.60
2019-03-11T18:55:24.192Z,77.50
2019-03-11T18:57:52.732Z,77.50
2019-03-11T19:00:23.128Z,78.40
2019-03-11T19:02:51.587Z,77.70
2019-03-11T19:05:26.077Z,77.80
2019-03-11T19:07:55.412Z,77.80
2019-03-11T19:10:24.120Z,77.80
2019-03-11T19:12:52.620Z,77.90
2019-03-11T19:15:22.586Z,78.00
2019-03-11T19:17:51.273Z,78.00
2019-03-11T19:20:22.193Z,77.90
2019-03-11T19:22:50.709Z,77.90
2019-03-11T19:25:19.215Z,77.90
2019-03-11T19:27:47.726Z,77.90
2019-03-11T19:30:18.222Z,77.90
2019-03-11T19:32:47.107Z,77.90
2019-03-11T19:35:16.670Z,78.20
2019-03-11T19:37:45.216Z,78.40
2019-03-11T19:40:18.998Z,78.40
2019-03-11T19:42:47.578Z,78.50
2019-03-11T19:45:16.998Z,78.50
2019-03-11T19:47:45.730Z,78.60
2019-03-11T19:50:16.121Z,78.60
2019-03-11T19:52:43.861Z,78.80
2019-03-11T19:55:12.761Z,78.90
2019-03-11T19:57:41.195Z,78.70
2019-03-11T20:00:21.606Z,79.10
2019-03-11T20:02:49.367Z,79.20
2019-03-11T20:05:28.830Z,79.20
2019-03-11T20:07:57.468Z,79.40
2019-03-11T20:10:26.084Z,79.70
2019-03-11T20:12:54.721Z,79.90
2019-03-11T20:15:23.267Z,80.10
2019-03-11T20:17:51.888Z,80.10
2019-03-11T20:20:21.264Z,80.10
2019-03-11T20:22:50.889Z,80.20
2019-03-11T20:25:33.321Z,80.00
2019-03-11T20:28:01.880Z,80.10
2019-03-11T20:30:30.488Z,80.10
2019-03-11T20:32:59.069Z,80.20
2019-03-11T20:35:27.687Z,80.20
2019-03-11T20:37:56.473Z,80.20
2019-03-11T20:40:25.004Z,80.10
2019-03-11T20:42:53.563Z,80.10
2019-03-11T20:45:23.534Z,80.20
2019-03-11T20:47:52.052Z,80.10
2019-03-11T20:50:20.777Z,79.90
2019-03-11T20:52:49.307Z,79.70
2019-03-11T20:55:19.402Z,79.60
2019-03-11T20:57:48.184Z,79.50
2019-03-11T21:00:19.049Z,79.50
2019-03-11T21:02:47.565Z,79.50
2019-03-11T21:05:35.530Z,79.40
2019-03-11T21:08:03.664Z,79.40
2019-03-11T21:10:32.200Z,79.20
2019-03-11T21:13:00.729Z,79.20
2019-03-11T21:15:29.330Z,79.20
2019-03-11T21:17:57.772Z,79.10
2019-03-11T21:20:26.290Z,79.20
2019-03-11T21:22:54.811Z,78.90
2019-03-11T21:25:23.335Z,79.10
2019-03-11T21:27:51.867Z,79.10
2019-03-11T21:30:21.862Z,78.90
2019-03-11T21:32:50.419Z,78.90
2019-03-11T21:35:19.934Z,78.90
2019-03-11T21:37:48.754Z,78.80
2019-03-11T21:40:38.175Z,78.80
2019-03-11T21:43:06.655Z,78.70
2019-03-11T21:45:35.201Z,78.50
2019-03-11T21:48:03.691Z,78.40
2019-03-11T21:50:51.747Z,78.30
2019-03-11T21:53:20.244Z,78.40
2019-03-11T21:55:48.755Z,78.50
2019-03-11T21:58:17.234Z,78.70
2019-03-11T22:00:45.776Z,78.80
2019-03-11T22:03:14.330Z,78.90
2019-03-11T22:05:42.749Z,79.00
2019-03-11T22:08:11.244Z,79.10
2019-03-11T22:10:39.693Z,79.10
2019-03-11T22:13:08.131Z,79.20
2019-03-11T22:15:36.588Z,79.20
2019-03-11T22:18:05.052Z,79.30
2019-03-11T22:20:33.526Z,79.00
2019-03-11T22:23:01.975Z,79.30
2019-03-11T22:25:30.415Z,79.30
2019-03-11T22:27:58.900Z,79.30
2019-03-11T22:30:27.391Z,79.30
2019-03-11T22:32:55.841Z,79.40
2019-03-11T22:35:24.324Z,79.60
2019-03-11T22:37:52.853Z,79.60
2019-03-11T22:40:21.330Z,79.70
2019-03-11T22:42:49.771Z,79.70
2019-03-11T22:45:22.480Z,79.90
2019-03-11T22:47:51.485Z,80.00
2019-03-11T22:50:20.829Z,80.10
2019-03-11T22:52:49.450Z,80.20
2019-03-11T22:55:19.407Z,80.40
2019-03-11T22:57:47.878Z,80.30
2019-03-11T23:00:33.246Z,80.50
2019-03-11T23:03:01.693Z,80.50
2019-03-11T23:05:30.217Z,80.60
2019-03-11T23:07:58.738Z,80.80
2019-03-11T23:10:27.191Z,80.90
2019-03-11T23:12:55.648Z,80.90
2019-03-11T23:15:24.127Z,81.00
2019-03-11T23:17:52.648Z,80.90
2019-03-11T23:20:21.112Z,81.00
2019-03-11T23:22:49.551Z,80.90
2019-03-11T23:25:18.001Z,80.80
2019-03-11T23:27:46.531Z,80.70
2019-03-11T23:30:15.510Z,80.60
2019-03-11T23:32:43.963Z,80.60
2019-03-11T23:35:12.482Z,80.50
2019-03-11T23:37:40.935Z,80.50
2019-03-11T23:40:10.255Z,80.60
2019-03-11T23:42:38.695Z,80.60
2019-03-11T23:45:27.574Z,80.40
2019-03-11T23:47:56.017Z,80.30
2019-03-11T23:50:24.523Z,80.00
2019-03-11T23:52:53.070Z,80.00
2019-03-11T23:55:21.539Z,79.90
2019-03-11T23:57:50.163Z,79.90
